sensor_id;sensor_type;location;lat;lon;timestamp;P1;durP1;ratioP1;P2;durP2;ratioP2
70806;SDS011;58882;52.170;5.386;2023-05-13T00:00:54;8.38;;;4.68;;
70806;SDS011;58882;52.170;5.386;2023-05-13T00:03:34;8.30;;;4.93;;
70806;SDS011;58882;52.170;5.386;2023-05-13T00:06:21;9.55;;;5.18;;
70806;SDS011;58882;52.170;5.386;2023-05-13T00:09:01;8.73;;;4.82;;
70806;SDS011;58882;52.170;5.386;2023-05-13T00:11:49;7.28;;;4.75;;
70806;SDS011;58882;52.170;5.386;2023-05-13T00:14:29;9.55;;;5.00;;
70806;SDS011;58882;52.170;5.386;2023-05-13T00:17:16;10.15;;;5.05;;
70806;SDS011;58882;52.170;5.386;2023-05-13T00:19:56;8.68;;;4.85;;
70806;SDS011;58882;52.170;5.386;2023-05-13T00:22:43;8.80;;;4.60;;
70806;SDS011;58882;52.170;5.386;2023-05-13T00:25:23;9.75;;;5.20;;
70806;SDS011;58882;52.170;5.386;2023-05-13T00:28:10;8.25;;;5.18;;
70806;SDS011;58882;52.170;5.386;2023-05-13T00:30:53;10.80;;;4.95;;
70806;SDS011;58882;52.170;5.386;2023-05-13T00:33:40;7.95;;;4.70;;
70806;SDS011;58882;52.170;5.386;2023-05-13T00:36:20;7.63;;;4.80;;
70806;SDS011;58882;52.170;5.386;2023-05-13T00:39:07;10.95;;;4.80;;
70806;SDS011;58882;52.170;5.386;2023-05-13T00:41:47;8.48;;;4.93;;
70806;SDS011;58882;52.170;5.386;2023-05-13T00:44:34;9.68;;;4.78;;
70806;SDS011;58882;52.170;5.386;2023-05-13T00:47:14;8.60;;;4.90;;
70806;SDS011;58882;52.170;5.386;2023-05-13T00:50:02;9.23;;;4.75;;
70806;SDS011;58882;52.170;5.386;2023-05-13T00:52:42;10.55;;;4.80;;
70806;SDS011;58882;52.170;5.386;2023-05-13T00:55:29;11.00;;;5.10;;
70806;SDS011;58882;52.170;5.386;2023-05-13T00:58:09;7.50;;;5.10;;
70806;SDS011;58882;52.170;5.386;2023-05-13T01:01:12;7.72;;;4.72;;
70806;SDS011;58882;52.170;5.386;2023-05-13T01:07:12;8.00;;;5.20;;
70806;SDS011;58882;52.170;5.386;2023-05-13T01:10:08;8.18;;;5.13;;
70806;SDS011;58882;52.170;5.386;2023-05-13T01:13:13;9.23;;;5.40;;
70806;SDS011;58882;52.170;5.386;2023-05-13T01:16:00;8.55;;;5.03;;
70806;SDS011;58882;52.170;5.386;2023-05-13T01:18:52;8.27;;;5.50;;
70806;SDS011;58882;52.170;5.386;2023-05-13T01:21:37;8.73;;;5.00;;
70806;SDS011;58882;52.170;5.386;2023-05-13T01:24:24;9.80;;;4.90;;
70806;SDS011;58882;52.170;5.386;2023-05-13T01:27:04;10.35;;;5.28;;
70806;SDS011;58882;52.170;5.386;2023-05-13T01:29:52;10.60;;;5.40;;
70806;SDS011;58882;52.170;5.386;2023-05-13T01:32:34;10.00;;;5.40;;
70806;SDS011;58882;52.170;5.386;2023-05-13T01:35:29;8.38;;;5.40;;
70806;SDS011;58882;52.170;5.386;2023-05-13T01:38:19;10.13;;;5.53;;
70806;SDS011;58882;52.170;5.386;2023-05-13T01:41:14;9.38;;;5.57;;
70806;SDS011;58882;52.170;5.386;2023-05-13T01:44:08;9.10;;;5.65;;
70806;SDS011;58882;52.170;5.386;2023-05-13T01:46:42;10.40;;;5.07;;
70806;SDS011;58882;52.170;5.386;2023-05-13T01:49:37;10.25;;;5.50;;
70806;SDS011;58882;52.170;5.386;2023-05-13T01:55:04;10.25;;;4.82;;
70806;SDS011;58882;52.170;5.386;2023-05-13T01:57:39;12.20;;;5.70;;
70806;SDS011;58882;52.170;5.386;2023-05-13T02:00:33;10.73;;;6.13;;
70806;SDS011;58882;52.170;5.386;2023-05-13T02:03:13;10.88;;;5.60;;
70806;SDS011;58882;52.170;5.386;2023-05-13T02:06:00;10.65;;;6.07;;
70806;SDS011;58882;52.170;5.386;2023-05-13T02:08:40;10.93;;;5.53;;
70806;SDS011;58882;52.170;5.386;2023-05-13T02:11:27;12.05;;;5.57;;
70806;SDS011;58882;52.170;5.386;2023-05-13T02:14:07;13.50;;;5.75;;
70806;SDS011;58882;52.170;5.386;2023-05-13T02:17:01;9.88;;;5.47;;
70806;SDS011;58882;52.170;5.386;2023-05-13T02:19:41;10.32;;;5.97;;
70806;SDS011;58882;52.170;5.386;2023-05-13T02:22:28;11.73;;;6.25;;
70806;SDS011;58882;52.170;5.386;2023-05-13T02:25:08;10.27;;;6.07;;
70806;SDS011;58882;52.170;5.386;2023-05-13T02:28:02;10.63;;;6.53;;
70806;SDS011;58882;52.170;5.386;2023-05-13T02:30:42;9.65;;;5.57;;
70806;SDS011;58882;52.170;5.386;2023-05-13T02:33:29;9.15;;;6.45;;
70806;SDS011;58882;52.170;5.386;2023-05-13T02:39:03;10.40;;;6.20;;
70806;SDS011;58882;52.170;5.386;2023-05-13T02:41:36;10.57;;;5.90;;
70806;SDS011;58882;52.170;5.386;2023-05-13T02:44:33;10.40;;;6.00;;
70806;SDS011;58882;52.170;5.386;2023-05-13T02:47:14;12.18;;;6.20;;
70806;SDS011;58882;52.170;5.386;2023-05-13T02:50:05;12.90;;;6.10;;
70806;SDS011;58882;52.170;5.386;2023-05-13T02:52:48;9.00;;;5.35;;
70806;SDS011;58882;52.170;5.386;2023-05-13T02:55:37;12.27;;;6.72;;
70806;SDS011;58882;52.170;5.386;2023-05-13T02:58:17;10.30;;;6.13;;
70806;SDS011;58882;52.170;5.386;2023-05-13T03:01:04;10.15;;;6.28;;
70806;SDS011;58882;52.170;5.386;2023-05-13T03:03:44;14.23;;;6.35;;
70806;SDS011;58882;52.170;5.386;2023-05-13T03:06:31;10.73;;;6.32;;
70806;SDS011;58882;52.170;5.386;2023-05-13T03:09:11;9.48;;;6.47;;
70806;SDS011;58882;52.170;5.386;2023-05-13T03:11:58;10.40;;;6.05;;
70806;SDS011;58882;52.170;5.386;2023-05-13T03:14:38;12.80;;;7.25;;
70806;SDS011;58882;52.170;5.386;2023-05-13T03:17:25;15.18;;;6.75;;
70806;SDS011;58882;52.170;5.386;2023-05-13T03:20:05;10.85;;;6.53;;
70806;SDS011;58882;52.170;5.386;2023-05-13T03:22:53;12.20;;;6.65;;
70806;SDS011;58882;52.170;5.386;2023-05-13T03:25:34;14.95;;;7.07;;
70806;SDS011;58882;52.170;5.386;2023-05-13T03:28:21;11.88;;;6.78;;
70806;SDS011;58882;52.170;5.386;2023-05-13T03:31:01;11.18;;;6.75;;
70806;SDS011;58882;52.170;5.386;2023-05-13T03:33:55;13.18;;;7.78;;
70806;SDS011;58882;52.170;5.386;2023-05-13T03:36:35;12.15;;;6.85;;
70806;SDS011;58882;52.170;5.386;2023-05-13T03:39:23;11.65;;;7.55;;
70806;SDS011;58882;52.170;5.386;2023-05-13T03:42:10;12.35;;;7.07;;
70806;SDS011;58882;52.170;5.386;2023-05-13T03:44:53;14.35;;;6.95;;
70806;SDS011;58882;52.170;5.386;2023-05-13T03:47:42;11.80;;;7.40;;
70806;SDS011;58882;52.170;5.386;2023-05-13T03:50:23;10.57;;;7.75;;
70806;SDS011;58882;52.170;5.386;2023-05-13T03:53:10;11.75;;;7.65;;
70806;SDS011;58882;52.170;5.386;2023-05-13T03:55:52;11.23;;;7.40;;
70806;SDS011;58882;52.170;5.386;2023-05-13T03:58:39;12.73;;;7.97;;
70806;SDS011;58882;52.170;5.386;2023-05-13T04:01:19;11.77;;;7.70;;
70806;SDS011;58882;52.170;5.386;2023-05-13T04:04:07;16.95;;;8.57;;
70806;SDS011;58882;52.170;5.386;2023-05-13T04:06:47;13.18;;;8.13;;
70806;SDS011;58882;52.170;5.386;2023-05-13T04:09:41;13.63;;;8.15;;
70806;SDS011;58882;52.170;5.386;2023-05-13T04:12:14;13.68;;;8.23;;
70806;SDS011;58882;52.170;5.386;2023-05-13T04:17:48;15.90;;;8.35;;
70806;SDS011;58882;52.170;5.386;2023-05-13T04:20:38;12.45;;;8.00;;
70806;SDS011;58882;52.170;5.386;2023-05-13T04:23:19;11.75;;;8.05;;
70806;SDS011;58882;52.170;5.386;2023-05-13T04:26:06;12.68;;;7.72;;
70806;SDS011;58882;52.170;5.386;2023-05-13T04:28:47;13.27;;;8.15;;
70806;SDS011;58882;52.170;5.386;2023-05-13T04:31:34;12.82;;;7.90;;
70806;SDS011;58882;52.170;5.386;2023-05-13T04:34:14;13.13;;;8.45;;
70806;SDS011;58882;52.170;5.386;2023-05-13T04:37:01;14.77;;;8.10;;
70806;SDS011;58882;52.170;5.386;2023-05-13T04:39:42;13.68;;;8.10;;
70806;SDS011;58882;52.170;5.386;2023-05-13T04:42:38;14.10;;;8.05;;
70806;SDS011;58882;52.170;5.386;2023-05-13T04:45:11;14.00;;;8.50;;
70806;SDS011;58882;52.170;5.386;2023-05-13T04:48:06;12.45;;;8.50;;
70806;SDS011;58882;52.170;5.386;2023-05-13T04:50:43;11.75;;;7.97;;
70806;SDS011;58882;52.170;5.386;2023-05-13T04:53:38;13.38;;;6.82;;
70806;SDS011;58882;52.170;5.386;2023-05-13T04:56:11;15.10;;;6.75;;
70806;SDS011;58882;52.170;5.386;2023-05-13T04:59:07;15.13;;;7.18;;
70806;SDS011;58882;52.170;5.386;2023-05-13T05:01:48;16.73;;;6.13;;
70806;SDS011;58882;52.170;5.386;2023-05-13T05:04:35;13.90;;;6.85;;
70806;SDS011;58882;52.170;5.386;2023-05-13T05:07:16;16.42;;;6.13;;
70806;SDS011;58882;52.170;5.386;2023-05-13T05:10:10;12.48;;;7.05;;
70806;SDS011;58882;52.170;5.386;2023-05-13T05:12:49;10.85;;;6.60;;
70806;SDS011;58882;52.170;5.386;2023-05-13T05:15:43;13.05;;;6.55;;
70806;SDS011;58882;52.170;5.386;2023-05-13T05:18:16;11.32;;;6.32;;
70806;SDS011;58882;52.170;5.386;2023-05-13T05:21:10;10.63;;;6.47;;
70806;SDS011;58882;52.170;5.386;2023-05-13T05:23:44;10.13;;;6.10;;
70806;SDS011;58882;52.170;5.386;2023-05-13T05:26:38;10.00;;;6.50;;
70806;SDS011;58882;52.170;5.386;2023-05-13T05:29:18;12.02;;;6.82;;
70806;SDS011;58882;52.170;5.386;2023-05-13T05:32:05;10.65;;;6.60;;
70806;SDS011;58882;52.170;5.386;2023-05-13T05:34:46;11.50;;;7.05;;
70806;SDS011;58882;52.170;5.386;2023-05-13T05:37:40;14.35;;;7.10;;
70806;SDS011;58882;52.170;5.386;2023-05-13T05:40:13;10.75;;;6.20;;
70806;SDS011;58882;52.170;5.386;2023-05-13T05:43:07;9.48;;;6.55;;
70806;SDS011;58882;52.170;5.386;2023-05-13T05:45:42;10.38;;;5.88;;
70806;SDS011;58882;52.170;5.386;2023-05-13T05:48:36;12.00;;;6.75;;
70806;SDS011;58882;52.170;5.386;2023-05-13T05:51:09;10.77;;;6.30;;
70806;SDS011;58882;52.170;5.386;2023-05-13T05:54:05;10.45;;;6.65;;
70806;SDS011;58882;52.170;5.386;2023-05-13T05:56:38;11.73;;;6.50;;
70806;SDS011;58882;52.170;5.386;2023-05-13T05:59:32;12.75;;;6.53;;
70806;SDS011;58882;52.170;5.386;2023-05-13T06:02:05;11.13;;;6.72;;
70806;SDS011;58882;52.170;5.386;2023-05-13T06:05:00;12.07;;;6.35;;
70806;SDS011;58882;52.170;5.386;2023-05-13T06:07:35;10.35;;;5.70;;
70806;SDS011;58882;52.170;5.386;2023-05-13T06:10:29;9.77;;;6.60;;
70806;SDS011;58882;52.170;5.386;2023-05-13T06:13:02;9.88;;;6.65;;
70806;SDS011;58882;52.170;5.386;2023-05-13T06:15:56;10.60;;;6.70;;
70806;SDS011;58882;52.170;5.386;2023-05-13T06:18:29;12.13;;;7.03;;
70806;SDS011;58882;52.170;5.386;2023-05-13T06:21:23;10.15;;;6.80;;
70806;SDS011;58882;52.170;5.386;2023-05-13T06:23:56;10.38;;;6.10;;
70806;SDS011;58882;52.170;5.386;2023-05-13T06:26:51;11.32;;;6.65;;
70806;SDS011;58882;52.170;5.386;2023-05-13T06:29:24;14.90;;;6.97;;
70806;SDS011;58882;52.170;5.386;2023-05-13T06:32:18;9.63;;;5.95;;
70806;SDS011;58882;52.170;5.386;2023-05-13T06:34:58;10.05;;;6.40;;
70806;SDS011;58882;52.170;5.386;2023-05-13T06:37:45;10.40;;;6.45;;
70806;SDS011;58882;52.170;5.386;2023-05-13T06:40:18;9.77;;;5.85;;
70806;SDS011;58882;52.170;5.386;2023-05-13T06:43:12;10.77;;;6.13;;
70806;SDS011;58882;52.170;5.386;2023-05-13T06:45:56;11.35;;;6.97;;
70806;SDS011;58882;52.170;5.386;2023-05-13T06:48:43;10.75;;;6.10;;
70806;SDS011;58882;52.170;5.386;2023-05-13T06:51:25;13.93;;;6.40;;
70806;SDS011;58882;52.170;5.386;2023-05-13T06:54:14;10.70;;;6.40;;
70806;SDS011;58882;52.170;5.386;2023-05-13T06:56:54;11.73;;;6.55;;
70806;SDS011;58882;52.170;5.386;2023-05-13T06:59:43;9.85;;;6.07;;
70806;SDS011;58882;52.170;5.386;2023-05-13T07:02:23;12.07;;;6.38;;
70806;SDS011;58882;52.170;5.386;2023-05-13T07:05:10;9.88;;;5.63;;
70806;SDS011;58882;52.170;5.386;2023-05-13T07:07:44;10.50;;;6.50;;
70806;SDS011;58882;52.170;5.386;2023-05-13T07:10:39;11.43;;;6.35;;
70806;SDS011;58882;52.170;5.386;2023-05-13T07:13:12;12.65;;;6.28;;
70806;SDS011;58882;52.170;5.386;2023-05-13T07:16:06;10.73;;;6.15;;
70806;SDS011;58882;52.170;5.386;2023-05-13T07:18:46;9.27;;;6.15;;
70806;SDS011;58882;52.170;5.386;2023-05-13T07:21:33;9.80;;;6.13;;
70806;SDS011;58882;52.170;5.386;2023-05-13T07:24:14;13.10;;;5.70;;
70806;SDS011;58882;52.170;5.386;2023-05-13T07:27:08;10.45;;;6.25;;
70806;SDS011;58882;52.170;5.386;2023-05-13T07:29:41;12.20;;;6.07;;
70806;SDS011;58882;52.170;5.386;2023-05-13T07:32:35;12.70;;;6.20;;
70806;SDS011;58882;52.170;5.386;2023-05-13T07:35:08;10.77;;;5.93;;
70806;SDS011;58882;52.170;5.386;2023-05-13T07:38:03;11.02;;;5.50;;
70806;SDS011;58882;52.170;5.386;2023-05-13T07:40:36;9.77;;;5.88;;
70806;SDS011;58882;52.170;5.386;2023-05-13T07:43:30;12.75;;;5.78;;
70806;SDS011;58882;52.170;5.386;2023-05-13T07:46:12;11.80;;;5.55;;
70806;SDS011;58882;52.170;5.386;2023-05-13T07:48:59;8.15;;;5.13;;
70806;SDS011;58882;52.170;5.386;2023-05-13T07:51:32;11.70;;;5.68;;
70806;SDS011;58882;52.170;5.386;2023-05-13T07:54:26;11.30;;;4.97;;
70806;SDS011;58882;52.170;5.386;2023-05-13T07:57:07;10.55;;;5.20;;
70806;SDS011;58882;52.170;5.386;2023-05-13T08:00:01;9.15;;;5.10;;
70806;SDS011;58882;52.170;5.386;2023-05-13T08:02:41;9.85;;;5.70;;
70806;SDS011;58882;52.170;5.386;2023-05-13T08:05:29;9.57;;;4.75;;
70806;SDS011;58882;52.170;5.386;2023-05-13T08:08:09;9.70;;;5.63;;
70806;SDS011;58882;52.170;5.386;2023-05-13T08:10:56;9.30;;;5.00;;
70806;SDS011;58882;52.170;5.386;2023-05-13T08:13:36;8.15;;;4.78;;
70806;SDS011;58882;52.170;5.386;2023-05-13T08:16:30;7.45;;;4.25;;
70806;SDS011;58882;52.170;5.386;2023-05-13T08:19:12;8.35;;;4.68;;
70806;SDS011;58882;52.170;5.386;2023-05-13T08:22:07;7.47;;;4.63;;
70806;SDS011;58882;52.170;5.386;2023-05-13T08:24:40;7.82;;;4.43;;
70806;SDS011;58882;52.170;5.386;2023-05-13T08:27:34;8.38;;;4.68;;
70806;SDS011;58882;52.170;5.386;2023-05-13T08:30:07;7.05;;;4.60;;
70806;SDS011;58882;52.170;5.386;2023-05-13T08:33:01;9.45;;;4.95;;
70806;SDS011;58882;52.170;5.386;2023-05-13T08:35:41;8.55;;;4.75;;
70806;SDS011;58882;52.170;5.386;2023-05-13T08:38:28;8.05;;;4.70;;
70806;SDS011;58882;52.170;5.386;2023-05-13T08:41:08;7.13;;;4.43;;
70806;SDS011;58882;52.170;5.386;2023-05-13T08:44:00;7.85;;;4.30;;
70806;SDS011;58882;52.170;5.386;2023-05-13T08:46:46;6.13;;;4.38;;
70806;SDS011;58882;52.170;5.386;2023-05-13T08:49:45;8.43;;;4.53;;
70806;SDS011;58882;52.170;5.386;2023-05-13T08:52:25;7.80;;;4.32;;
70806;SDS011;58882;52.170;5.386;2023-05-13T08:55:13;11.10;;;4.85;;
70806;SDS011;58882;52.170;5.386;2023-05-13T08:57:54;7.75;;;3.97;;
70806;SDS011;58882;52.170;5.386;2023-05-13T09:00:41;7.88;;;4.47;;
70806;SDS011;58882;52.170;5.386;2023-05-13T09:03:21;7.75;;;3.70;;
70806;SDS011;58882;52.170;5.386;2023-05-13T09:06:08;7.72;;;4.22;;
70806;SDS011;58882;52.170;5.386;2023-05-13T09:08:48;7.25;;;4.30;;
70806;SDS011;58882;52.170;5.386;2023-05-13T09:11:35;7.43;;;4.28;;
70806;SDS011;58882;52.170;5.386;2023-05-13T09:14:17;7.70;;;4.00;;
70806;SDS011;58882;52.170;5.386;2023-05-13T09:17:05;6.88;;;4.47;;
70806;SDS011;58882;52.170;5.386;2023-05-13T09:19:46;7.20;;;4.00;;
70806;SDS011;58882;52.170;5.386;2023-05-13T09:22:33;7.95;;;4.40;;
70806;SDS011;58882;52.170;5.386;2023-05-13T09:25:13;7.50;;;4.10;;
70806;SDS011;58882;52.170;5.386;2023-05-13T09:28:06;7.70;;;4.28;;
70806;SDS011;58882;52.170;5.386;2023-05-13T09:30:47;7.70;;;4.13;;
70806;SDS011;58882;52.170;5.386;2023-05-13T09:33:42;6.55;;;4.10;;
70806;SDS011;58882;52.170;5.386;2023-05-13T09:36:31;7.63;;;3.95;;
70806;SDS011;58882;52.170;5.386;2023-05-13T09:39:19;6.70;;;3.97;;
70806;SDS011;58882;52.170;5.386;2023-05-13T09:41:59;6.78;;;4.10;;
70806;SDS011;58882;52.170;5.386;2023-05-13T09:44:47;6.78;;;4.38;;
70806;SDS011;58882;52.170;5.386;2023-05-13T09:47:28;7.50;;;4.32;;
70806;SDS011;58882;52.170;5.386;2023-05-13T09:50:15;6.93;;;4.18;;
70806;SDS011;58882;52.170;5.386;2023-05-13T09:52:55;7.38;;;4.28;;
70806;SDS011;58882;52.170;5.386;2023-05-13T09:55:45;7.43;;;4.25;;
70806;SDS011;58882;52.170;5.386;2023-05-13T09:58:30;6.60;;;3.97;;
70806;SDS011;58882;52.170;5.386;2023-05-13T10:01:18;6.07;;;4.00;;
70806;SDS011;58882;52.170;5.386;2023-05-13T10:04:00;7.50;;;4.03;;
70806;SDS011;58882;52.170;5.386;2023-05-13T10:06:47;7.57;;;4.38;;
70806;SDS011;58882;52.170;5.386;2023-05-13T10:09:29;7.20;;;3.90;;
70806;SDS011;58882;52.170;5.386;2023-05-13T10:12:21;6.38;;;4.00;;
70806;SDS011;58882;52.170;5.386;2023-05-13T10:15:03;7.75;;;4.15;;
70806;SDS011;58882;52.170;5.386;2023-05-13T10:17:51;7.68;;;4.28;;
70806;SDS011;58882;52.170;5.386;2023-05-13T10:20:32;6.68;;;4.28;;
70806;SDS011;58882;52.170;5.386;2023-05-13T10:23:19;6.30;;;3.92;;
70806;SDS011;58882;52.170;5.386;2023-05-13T10:26:01;7.78;;;4.22;;
70806;SDS011;58882;52.170;5.386;2023-05-13T10:28:49;9.93;;;4.80;;
70806;SDS011;58882;52.170;5.386;2023-05-13T10:31:29;7.95;;;4.63;;
70806;SDS011;58882;52.170;5.386;2023-05-13T10:34:16;8.25;;;4.22;;
70806;SDS011;58882;52.170;5.386;2023-05-13T10:37:09;9.20;;;4.72;;
70806;SDS011;58882;52.170;5.386;2023-05-13T10:43:18;7.55;;;4.43;;
70806;SDS011;58882;52.170;5.386;2023-05-13T10:46:12;7.82;;;4.45;;
70806;SDS011;58882;52.170;5.386;2023-05-13T10:48:46;6.90;;;4.47;;
70806;SDS011;58882;52.170;5.386;2023-05-13T10:51:47;6.43;;;4.03;;
70806;SDS011;58882;52.170;5.386;2023-05-13T10:54:28;7.10;;;4.40;;
70806;SDS011;58882;52.170;5.386;2023-05-13T10:57:19;7.85;;;4.68;;
70806;SDS011;58882;52.170;5.386;2023-05-13T11:00:14;7.68;;;4.20;;
70806;SDS011;58882;52.170;5.386;2023-05-13T11:02:56;9.18;;;4.60;;
70806;SDS011;58882;52.170;5.386;2023-05-13T11:05:44;7.78;;;4.50;;
70806;SDS011;58882;52.170;5.386;2023-05-13T11:08:35;7.38;;;4.10;;
70806;SDS011;58882;52.170;5.386;2023-05-13T11:11:28;6.85;;;3.97;;
70806;SDS011;58882;52.170;5.386;2023-05-13T11:14:44;8.25;;;4.30;;
70806;SDS011;58882;52.170;5.386;2023-05-13T11:17:28;7.90;;;3.92;;
70806;SDS011;58882;52.170;5.386;2023-05-13T11:20:09;7.40;;;4.30;;
70806;SDS011;58882;52.170;5.386;2023-05-13T11:22:57;7.93;;;4.10;;
70806;SDS011;58882;52.170;5.386;2023-05-13T11:25:37;8.80;;;4.25;;
70806;SDS011;58882;52.170;5.386;2023-05-13T11:31:47;7.60;;;4.10;;
70806;SDS011;58882;52.170;5.386;2023-05-13T11:34:39;7.03;;;4.20;;
70806;SDS011;58882;52.170;5.386;2023-05-13T11:37:30;8.15;;;4.13;;
70806;SDS011;58882;52.170;5.386;2023-05-13T11:43:12;6.50;;;4.10;;
70806;SDS011;58882;52.170;5.386;2023-05-13T11:45:58;6.97;;;4.10;;
70806;SDS011;58882;52.170;5.386;2023-05-13T11:48:48;7.32;;;4.10;;
70806;SDS011;58882;52.170;5.386;2023-05-13T11:51:21;7.05;;;4.15;;
70806;SDS011;58882;52.170;5.386;2023-05-13T11:54:17;7.47;;;3.97;;
70806;SDS011;58882;52.170;5.386;2023-05-13T11:56:50;5.72;;;3.67;;
70806;SDS011;58882;52.170;5.386;2023-05-13T12:02:31;5.47;;;3.75;;
70806;SDS011;58882;52.170;5.386;2023-05-13T12:05:26;6.45;;;3.70;;
70806;SDS011;58882;52.170;5.386;2023-05-13T12:08:06;6.63;;;3.70;;
70806;SDS011;58882;52.170;5.386;2023-05-13T12:10:54;7.22;;;4.15;;
70806;SDS011;58882;52.170;5.386;2023-05-13T12:13:34;7.25;;;4.00;;
70806;SDS011;58882;52.170;5.386;2023-05-13T12:16:28;7.65;;;3.83;;
70806;SDS011;58882;52.170;5.386;2023-05-13T12:19:04;6.10;;;3.65;;
70806;SDS011;58882;52.170;5.386;2023-05-13T12:21:59;8.75;;;3.50;;
70806;SDS011;58882;52.170;5.386;2023-05-13T12:24:37;7.10;;;3.47;;
70806;SDS011;58882;52.170;5.386;2023-05-13T12:27:31;6.97;;;3.72;;
70806;SDS011;58882;52.170;5.386;2023-05-13T12:30:14;6.68;;;3.67;;
70806;SDS011;58882;52.170;5.386;2023-05-13T12:33:01;7.57;;;3.42;;
70806;SDS011;58882;52.170;5.386;2023-05-13T12:35:43;8.25;;;3.55;;
70806;SDS011;58882;52.170;5.386;2023-05-13T12:38:39;5.85;;;3.40;;
70806;SDS011;58882;52.170;5.386;2023-05-13T12:41:39;4.88;;;3.30;;
70806;SDS011;58882;52.170;5.386;2023-05-13T12:44:34;6.53;;;3.67;;
70806;SDS011;58882;52.170;5.386;2023-05-13T12:47:14;7.47;;;3.70;;
70806;SDS011;58882;52.170;5.386;2023-05-13T12:50:05;5.47;;;3.70;;
70806;SDS011;58882;52.170;5.386;2023-05-13T12:52:46;6.30;;;3.67;;
70806;SDS011;58882;52.170;5.386;2023-05-13T12:55:33;8.00;;;3.92;;
70806;SDS011;58882;52.170;5.386;2023-05-13T12:58:11;5.82;;;3.70;;
70806;SDS011;58882;52.170;5.386;2023-05-13T13:01:05;5.65;;;3.53;;
70806;SDS011;58882;52.170;5.386;2023-05-13T13:03:38;5.35;;;3.35;;
70806;SDS011;58882;52.170;5.386;2023-05-13T13:06:32;5.35;;;3.40;;
70806;SDS011;58882;52.170;5.386;2023-05-13T13:09:12;6.32;;;3.60;;
70806;SDS011;58882;52.170;5.386;2023-05-13T13:12:06;5.95;;;3.75;;
70806;SDS011;58882;52.170;5.386;2023-05-13T13:14:47;7.13;;;3.58;;
70806;SDS011;58882;52.170;5.386;2023-05-13T13:17:34;7.35;;;3.80;;
70806;SDS011;58882;52.170;5.386;2023-05-13T13:20:07;7.57;;;4.10;;
70806;SDS011;58882;52.170;5.386;2023-05-13T13:23:01;6.07;;;3.80;;
70806;SDS011;58882;52.170;5.386;2023-05-13T13:25:41;7.03;;;3.60;;
70806;SDS011;58882;52.170;5.386;2023-05-13T13:28:28;7.65;;;3.80;;
70806;SDS011;58882;52.170;5.386;2023-05-13T13:31:10;8.70;;;4.05;;
70806;SDS011;58882;52.170;5.386;2023-05-13T13:33:57;6.30;;;3.70;;
70806;SDS011;58882;52.170;5.386;2023-05-13T13:36:42;7.03;;;3.90;;
70806;SDS011;58882;52.170;5.386;2023-05-13T13:39:29;6.32;;;3.70;;
70806;SDS011;58882;52.170;5.386;2023-05-13T13:42:09;7.35;;;4.03;;
70806;SDS011;58882;52.170;5.386;2023-05-13T13:44:56;7.32;;;3.95;;
70806;SDS011;58882;52.170;5.386;2023-05-13T13:47:36;8.32;;;3.75;;
70806;SDS011;58882;52.170;5.386;2023-05-13T13:50:23;6.88;;;3.70;;
70806;SDS011;58882;52.170;5.386;2023-05-13T13:53:03;6.93;;;3.85;;
70806;SDS011;58882;52.170;5.386;2023-05-13T13:55:50;6.15;;;3.88;;
70806;SDS011;58882;52.170;5.386;2023-05-13T13:58:30;5.00;;;3.28;;
70806;SDS011;58882;52.170;5.386;2023-05-13T14:01:17;6.30;;;3.53;;
70806;SDS011;58882;52.170;5.386;2023-05-13T14:04:11;6.13;;;3.65;;
70806;SDS011;58882;52.170;5.386;2023-05-13T14:07:04;5.80;;;3.40;;
70806;SDS011;58882;52.170;5.386;2023-05-13T14:09:44;6.10;;;3.72;;
70806;SDS011;58882;52.170;5.386;2023-05-13T14:12:31;10.20;;;3.55;;
70806;SDS011;58882;52.170;5.386;2023-05-13T14:15:11;5.45;;;3.50;;
70806;SDS011;58882;52.170;5.386;2023-05-13T14:18:05;5.78;;;3.53;;
70806;SDS011;58882;52.170;5.386;2023-05-13T14:20:48;6.72;;;3.58;;
70806;SDS011;58882;52.170;5.386;2023-05-13T14:23:35;5.65;;;3.60;;
70806;SDS011;58882;52.170;5.386;2023-05-13T14:26:16;5.10;;;3.42;;
70806;SDS011;58882;52.170;5.386;2023-05-13T14:29:10;7.63;;;3.55;;
70806;SDS011;58882;52.170;5.386;2023-05-13T14:31:50;7.75;;;3.60;;
70806;SDS011;58882;52.170;5.386;2023-05-13T14:34:37;7.03;;;3.83;;
70806;SDS011;58882;52.170;5.386;2023-05-13T14:37:17;7.10;;;3.58;;
70806;SDS011;58882;52.170;5.386;2023-05-13T14:40:04;6.10;;;3.63;;
70806;SDS011;58882;52.170;5.386;2023-05-13T14:42:45;5.55;;;3.10;;
70806;SDS011;58882;52.170;5.386;2023-05-13T14:45:39;5.85;;;3.60;;
70806;SDS011;58882;52.170;5.386;2023-05-13T14:48:19;6.25;;;3.30;;
70806;SDS011;58882;52.170;5.386;2023-05-13T14:51:07;5.97;;;3.83;;
70806;SDS011;58882;52.170;5.386;2023-05-13T14:53:42;7.43;;;3.70;;
70806;SDS011;58882;52.170;5.386;2023-05-13T14:56:36;6.45;;;3.60;;
70806;SDS011;58882;52.170;5.386;2023-05-13T14:59:16;6.20;;;3.22;;
70806;SDS011;58882;52.170;5.386;2023-05-13T15:02:03;6.15;;;3.42;;
70806;SDS011;58882;52.170;5.386;2023-05-13T15:04:43;7.35;;;3.60;;
70806;SDS011;58882;52.170;5.386;2023-05-13T15:07:40;5.35;;;3.40;;
70806;SDS011;58882;52.170;5.386;2023-05-13T15:10:20;5.55;;;3.35;;
70806;SDS011;58882;52.170;5.386;2023-05-13T15:13:14;6.65;;;3.47;;
70806;SDS011;58882;52.170;5.386;2023-05-13T15:15:54;5.63;;;3.50;;
70806;SDS011;58882;52.170;5.386;2023-05-13T15:18:41;7.28;;;3.60;;
70806;SDS011;58882;52.170;5.386;2023-05-13T15:21:21;5.93;;;3.55;;
70806;SDS011;58882;52.170;5.386;2023-05-13T15:24:08;10.00;;;3.58;;
70806;SDS011;58882;52.170;5.386;2023-05-13T15:26:48;6.55;;;3.35;;
70806;SDS011;58882;52.170;5.386;2023-05-13T15:29:42;5.47;;;2.90;;
70806;SDS011;58882;52.170;5.386;2023-05-13T15:32:22;9.07;;;3.53;;
70806;SDS011;58882;52.170;5.386;2023-05-13T15:35:16;6.60;;;3.67;;
70806;SDS011;58882;52.170;5.386;2023-05-13T15:37:56;6.40;;;3.60;;
70806;SDS011;58882;52.170;5.386;2023-05-13T15:40:43;7.10;;;3.90;;
70806;SDS011;58882;52.170;5.386;2023-05-13T15:43:25;6.40;;;3.92;;
70806;SDS011;58882;52.170;5.386;2023-05-13T15:46:19;8.32;;;3.78;;
70806;SDS011;58882;52.170;5.386;2023-05-13T15:48:59;7.40;;;3.75;;
70806;SDS011;58882;52.170;5.386;2023-05-13T15:51:47;6.82;;;4.07;;
70806;SDS011;58882;52.170;5.386;2023-05-13T15:54:20;7.45;;;4.05;;
70806;SDS011;58882;52.170;5.386;2023-05-13T15:57:14;9.02;;;4.10;;
70806;SDS011;58882;52.170;5.386;2023-05-13T15:59:49;6.90;;;3.50;;
70806;SDS011;58882;52.170;5.386;2023-05-13T16:02:43;8.18;;;4.25;;
70806;SDS011;58882;52.170;5.386;2023-05-13T16:05:16;9.48;;;4.72;;
70806;SDS011;58882;52.170;5.386;2023-05-13T16:08:10;8.82;;;4.63;;
70806;SDS011;58882;52.170;5.386;2023-05-13T16:10:43;9.07;;;4.78;;
70806;SDS011;58882;52.170;5.386;2023-05-13T16:13:37;8.93;;;4.75;;
70806;SDS011;58882;52.170;5.386;2023-05-13T16:16:11;8.07;;;4.45;;
70806;SDS011;58882;52.170;5.386;2023-05-13T16:19:05;7.70;;;4.10;;
70806;SDS011;58882;52.170;5.386;2023-05-13T16:21:40;7.75;;;4.72;;
70806;SDS011;58882;52.170;5.386;2023-05-13T16:24:34;8.73;;;4.88;;
70806;SDS011;58882;52.170;5.386;2023-05-13T16:27:14;7.55;;;4.53;;
70806;SDS011;58882;52.170;5.386;2023-05-13T16:30:01;8.32;;;4.47;;
70806;SDS011;58882;52.170;5.386;2023-05-13T16:32:43;9.07;;;4.60;;
70806;SDS011;58882;52.170;5.386;2023-05-13T16:35:40;7.90;;;4.70;;
70806;SDS011;58882;52.170;5.386;2023-05-13T16:38:20;8.68;;;4.63;;
70806;SDS011;58882;52.170;5.386;2023-05-13T16:41:15;7.57;;;4.40;;
70806;SDS011;58882;52.170;5.386;2023-05-13T16:44:02;12.77;;;4.93;;
70806;SDS011;58882;52.170;5.386;2023-05-13T16:46:42;7.68;;;4.68;;
70806;SDS011;58882;52.170;5.386;2023-05-13T16:49:29;9.15;;;4.65;;
70806;SDS011;58882;52.170;5.386;2023-05-13T16:52:05;8.30;;;4.38;;
70806;SDS011;58882;52.170;5.386;2023-05-13T16:55:00;8.40;;;4.60;;